Time;durP1;ratioP1;P1;durP2;ratioP2;P2;SDS_P1;SDS_P2;PMS_P1;PMS_P2;Temp;Humidity;BMP_temperature;BMP_pressure;BME280_temperature;BME280_humidity;BME280_pressure;Samples;Min_cycle;Max_cycle;Signal;HPM_P1;HPM_P2
2021/12/07 00:01:33;;;;;;;19.10;13.10;;;;;;;;;;5054110;28;20409;-68
2021/12/07 00:03:59;;;;;;;17.80;11.47;;;;;;;;;;5054020;28;20425;-66
2021/12/07 00:06:25;;;;;;;22.83;13.53;;;;;;;;;;5054094;28;20413;-66
2021/12/07 00:08:54;;;;;;;18.83;12.23;;;;;;;;;;5052871;28;20403;-67
2021/12/07 00:11:21;;;;;;;18.37;13.77;;;;;;;;;;5054337;28;20448;-67
2021/12/07 00:13:48;;;;;;;18.70;11.20;;;;;;;;;;5053760;28;20414;-67
2021/12/07 00:16:14;;;;;;;19.47;13.00;;;;;;;;;;5054270;28;20402;-67
2021/12/07 00:18:41;;;;;;;13.93;11.00;;;;;;;;;;5053926;28;20397;-67
2021/12/07 00:21:08;;;;;;;15.03;10.80;;;;;;;;;;5054204;28;20843;-67
2021/12/07 00:23:35;;;;;;;17.33;12.00;;;;;;;;;;5052539;28;20445;-67
2021/12/07 00:26:01;;;;;;;17.67;11.97;;;;;;;;;;5052763;28;20446;-68
2021/12/07 00:28:27;;;;;;;17.70;11.67;;;;;;;;;;5053676;28;20400;-67
2021/12/07 00:30:54;;;;;;;19.07;12.17;;;;;;;;;;5053480;28;20504;-67
2021/12/07 00:35:51;;;;;;;17.37;11.00;;;;;;;;;;5053561;28;20395;-67
2021/12/07 00:38:19;;;;;;;18.23;12.77;;;;;;;;;;5053454;28;20485;-67
2021/12/07 00:40:46;;;;;;;20.67;12.70;;;;;;;;;;5052136;28;20913;-67
2021/12/07 00:43:12;;;;;;;17.87;12.23;;;;;;;;;;5053366;28;20456;-67
2021/12/07 00:45:41;;;;;;;15.77;11.23;;;;;;;;;;5052986;28;20398;-67
2021/12/07 00:48:07;;;;;;;15.63;10.33;;;;;;;;;;5051836;28;20426;-66
2021/12/07 00:50:35;;;;;;;16.00;9.87;;;;;;;;;;5052980;28;20799;-67
2021/12/07 00:53:02;;;;;;;14.93;9.73;;;;;;;;;;5051502;28;20452;-67
2021/12/07 00:55:31;;;;;;;14.83;10.20;;;;;;;;;;5053132;28;20896;-67
2021/12/07 00:57:58;;;;;;;14.27;11.03;;;;;;;;;;5053324;28;20501;-66
2021/12/07 01:00:30;;;;;;;14.20;9.77;;;;;;;;;;5053150;28;20421;-67
2021/12/07 01:02:57;;;;;;;13.60;10.33;;;;;;;;;;5053088;28;20449;-67
2021/12/07 01:05:28;;;;;;;14.77;10.37;;;;;;;;;;5053282;28;20448;-67
2021/12/07 01:24:42;;;;;;;9.50;7.90;;;;;;;;;;5052962;28;20474;-67
2021/12/07 01:27:10;;;;;;;11.20;7.00;;;;;;;;;;5052581;28;20375;-67
2021/12/07 01:29:37;;;;;;;9.57;6.80;;;;;;;;;;5052916;28;20748;-68
2021/12/07 01:43:05;;;;;;;7.67;4.77;;;0.30;99.90;;;;;;5052460;28;20994;-68
2021/12/07 01:51:01;;;;;;;5.97;4.50;;;0.40;99.90;;;;;;5051533;28;20540;-68
2021/12/07 02:01:39;;;;;;;5.90;3.20;;;0.80;99.90;;;;;;5052833;28;20422;-67
2021/12/07 02:04:05;;;;;;;5.27;3.37;;;0.80;99.90;;;;;;5052420;28;20907;-68
2021/12/07 02:06:31;;;;;;;5.87;3.83;;;0.90;99.90;;;;;;5052562;28;20267;-67
2021/12/07 02:08:56;;;;;;;5.53;4.30;;;0.90;99.90;;;;;;5052350;28;20561;-67
2021/12/07 02:11:22;;;;;;;4.63;3.23;;;1.00;99.90;;;;;;5052201;28;20215;-67
2021/12/07 02:16:16;;;;;;;4.73;2.70;;;1.00;99.90;;;;;;5043642;28;20441;-68
2021/12/07 02:18:42;;;;;;;4.40;3.50;;;0.90;99.90;;;;;;5033432;28;20283;-67
2021/12/07 02:21:20;;;;;;;4.50;2.93;;;1.00;99.90;;;;;;5032205;28;20457;-68
2021/12/07 02:23:47;;;;;;;4.20;2.77;;;1.10;99.90;;;;;;5032194;28;20195;-67
2021/12/07 02:26:12;;;;;;;4.40;3.63;;;1.00;99.90;;;;;;5032185;28;20450;-68
2021/12/07 02:28:40;;;;;;;4.50;3.67;;;1.00;99.90;;;;;;5032413;28;20430;-68
2021/12/07 02:31:07;;;;;;;5.33;3.60;;;1.00;99.90;;;;;;5032344;28;20215;-67
2021/12/07 02:33:34;;;;;;;5.50;3.47;;;1.00;99.90;;;;;;5032049;28;20843;-68
2021/12/07 02:36:00;;;;;;;4.53;3.60;;;1.00;99.90;;;;;;5032327;28;20403;-67
2021/12/07 02:38:26;;;;;;;4.10;3.17;;;1.00;99.90;;;;;;5032263;28;20768;-68
2021/12/07 02:40:53;;;;;;;4.87;3.57;;;1.00;99.90;;;;;;5031980;28;20414;-67
2021/12/07 02:43:18;;;;;;;3.90;2.90;;;1.00;99.90;;;;;;5032039;28;20756;-68
2021/12/07 02:45:44;;;;;;;5.00;4.23;;;1.00;99.90;;;;;;5031989;28;20403;-67
2021/12/07 02:48:10;;;;;;;3.73;2.67;;;0.90;99.90;;;;;;5032765;28;20183;-67
2021/12/07 02:50:36;;;;;;;5.43;2.97;;;0.80;99.90;;;;;;5035486;28;20192;-67
2021/12/07 02:53:02;;;;;;;6.60;3.20;;;;;;;;;;5038703;28;20456;-68
2021/12/07 02:55:30;;;;;;;5.50;3.47;;;;;;;;;;5055304;28;20175;-67
2021/12/07 02:57:56;;;;;;;4.27;3.27;;;;;;;;;;5055551;28;20394;-67
2021/12/07 03:00:27;;;;;;;3.47;2.70;;;;;;;;;;5055517;28;20760;-67
2021/12/07 03:02:59;;;;;;;3.40;2.57;;;;;;;;;;5055158;28;20496;-67
2021/12/07 03:08:23;;;;;;;2.83;2.10;;;;;;;;;;5055478;28;20907;-67
2021/12/07 03:27:10;;;;;;;4.70;3.17;;;;;;;;;;5033610;28;20437;-68
2021/12/07 03:29:36;;;;;;;4.97;3.27;;;;;;;;;;5054733;28;20896;-68
2021/12/07 03:32:02;;;;;;;4.30;3.10;;;;;;;;;;5055034;28;20394;-68
2021/12/07 03:34:28;;;;;;;5.47;3.50;;;;;;;;;;5054812;28;20464;-68
2021/12/07 03:36:54;;;;;;;4.60;2.70;;;;;;;;;;5054612;28;20823;-68
2021/12/07 03:39:20;;;;;;;3.37;2.30;;;;;;;;;;5054725;28;20394;-68
2021/12/07 03:41:46;;;;;;;3.97;2.77;;;;;;;;;;5054534;28;20480;-68
2021/12/07 03:44:12;;;;;;;5.33;3.17;;;;;;;;;;5054399;28;20442;-68
2021/12/07 03:46:38;;;;;;;4.43;2.80;;;;;;;;;;5047382;28;20422;-68
2021/12/07 03:49:05;;;;;;;3.80;2.60;;;;;;;;;;5054033;28;20405;-68
2021/12/07 03:51:31;;;;;;;4.50;2.67;;;;;;;;;;5054533;28;20932;-69
2021/12/07 03:53:57;;;;;;;3.57;2.60;;;;;;;;;;5054336;28;20449;-68
2021/12/07 03:56:23;;;;;;;4.00;2.77;;;;;;;;;;5054359;28;20841;-68
2021/12/07 03:58:49;;;;;;;3.83;2.60;;;;;;;;;;5054103;28;20390;-68
2021/12/07 04:01:15;;;;;;;3.20;2.60;;;;;;;;;;5054102;28;20433;-69
2021/12/07 04:03:42;;;;;;;2.93;2.63;;;;;;;;;;5054316;28;20794;-68
2021/12/07 04:06:08;;;;;;;3.20;2.17;;;;;;;;;;5053972;28;20485;-68
2021/12/07 04:08:41;;;;;;;2.60;2.33;;;0.80;99.90;;;;;;5054046;28;20407;-68
2021/12/07 04:11:07;;;;;;;3.53;2.80;;;;;;;;;;5053765;28;21036;-68
2021/12/07 04:13:33;;;;;;;2.60;1.87;;;;;;;;;;5053846;28;20487;-68
2021/12/07 04:15:59;;;;;;;2.87;2.40;;;;;;;;;;5054085;28;20763;-68
2021/12/07 04:18:27;;;;;;;2.93;2.33;;;;;;;;;;5053930;28;20402;-68
2021/12/07 04:20:53;;;;;;;4.00;2.50;;;;;;;;;;5054163;28;20481;-68
2021/12/07 04:23:20;;;;;;;2.63;1.90;;;;;;;;;;5053788;28;20957;-68
2021/12/07 04:25:46;;;;;;;3.80;2.40;;;;;;;;;;5053704;28;20773;-68
2021/12/07 04:28:12;;;;;;;2.43;2.00;;;;;;;;;;5053862;28;20402;-68
2021/12/07 04:30:39;;;;;;;2.53;1.93;;;;;;;;;;5052257;28;20446;-68
2021/12/07 04:33:07;;;;;;;3.30;2.00;;;;;;;;;;5058540;23;20908;-78
2021/12/07 04:35:33;;;;;;;2.70;2.17;;;;;;;;;;5046767;28;20413;-79
2021/12/07 04:37:59;;;;;;;3.30;2.50;;;;;;;;;;5058370;28;20818;-79
2021/12/07 04:40:27;;;;;;;4.33;2.23;;;;;;;;;;5056652;28;20416;-80
2021/12/07 04:42:54;;;;;;;2.80;2.40;;;;;;;;;;5055783;28;20422;-80
2021/12/07 04:58:37;;;;;;;2.63;1.70;;;;;;;;;;5056508;28;20979;-80
2021/12/07 05:01:09;;;;;;;2.30;1.87;;;;;;;;;;5055538;28;20969;-79
2021/12/07 05:03:35;;;;;;;2.27;2.07;;;;;;;;;;5055932;28;20481;-80
2021/12/07 05:06:02;;;;;;;5.17;2.00;;;;;;;;;;5055655;28;20410;-80
2021/12/07 05:08:36;;;;;;;3.00;2.23;;;;;;;;;;5055812;28;20413;-80
2021/12/07 05:13:48;;;;;;;3.30;1.80;;;;;;;;;;5056205;28;20464;-80
2021/12/07 05:16:40;;;;;;;2.37;1.60;;;;;;;;;;5056246;28;20387;-81
2021/12/07 05:24:52;;;;;;;2.17;1.90;;;;;;;;;;5056737;28;20409;-80
2021/12/07 05:38:18;;;;;;;1.93;1.50;;;;;;;;;;5056663;28;20384;-81
2021/12/07 05:40:45;;;;;;;2.30;1.73;;;;;;;;;;5056563;28;20408;-80
2021/12/07 05:43:11;;;;;;;2.40;1.60;;;;;;;;;;5067473;28;20424;-80
2021/12/07 05:45:38;;;;;;;3.03;1.80;;;;;;;;;;5056276;28;20398;-79
2021/12/07 05:48:05;;;;;;;2.00;1.50;;;;;;;;;;5055738;28;20406;-80
2021/12/07 05:50:34;;;;;;;2.07;1.80;;;0.90;99.90;;;;;;5055997;28;20445;-80
2021/12/07 05:53:01;;;;;;;3.50;1.70;;;1.30;99.90;;;;;;5055980;28;20430;-80
2021/12/07 05:55:27;;;;;;;2.80;2.07;;;1.30;99.90;;;;;;5055966;28;20436;-80
2021/12/07 05:57:54;;;;;;;2.40;1.93;;;1.30;99.90;;;;;;5054910;28;20406;-78
2021/12/07 06:00:25;;;;;;;2.03;1.83;;;1.30;99.90;;;;;;5058736;28;20612;-80
2021/12/07 06:02:53;;;;;;;2.00;1.40;;;1.30;99.90;;;;;;5057655;28;20434;-78
2021/12/07 06:05:20;;;;;;;2.23;1.77;;;1.30;99.90;;;;;;5058146;28;20425;-81
2021/12/07 06:07:45;;;;;;;3.00;1.57;;;1.30;99.90;;;;;;5056342;28;20446;-81
2021/12/07 06:10:11;;;;;;;1.77;1.30;;;1.40;99.90;;;;;;5056440;28;20539;-81
2021/12/07 06:12:37;;;;;;;3.70;1.90;;;1.40;99.90;;;;;;5056466;28;20560;-81
2021/12/07 06:15:03;;;;;;;2.47;1.60;;;1.30;99.90;;;;;;5059972;28;20171;-81
2021/12/07 06:17:30;;;;;;;2.37;1.67;;;1.30;99.90;;;;;;5055371;28;20183;-78
2021/12/07 06:19:55;;;;;;;3.50;1.60;;;1.30;99.90;;;;;;5054723;28;20397;-80
2021/12/07 06:22:21;;;;;;;3.83;2.10;;;1.40;99.90;;;;;;5055929;28;20475;-79
2021/12/07 06:24:47;;;;;;;2.50;2.00;;;1.40;99.90;;;;;;5059966;28;20167;-79
2021/12/07 06:27:13;;;;;;;3.27;2.17;;;1.40;99.90;;;;;;5056713;28;20176;-78
2021/12/07 06:29:39;;;;;;;2.50;2.13;;;1.40;99.90;;;;;;5056709;28;20552;-80
2021/12/07 06:32:06;;;;;;;2.50;2.17;;;1.40;99.90;;;;;;5056442;28;20211;-80
2021/12/07 06:34:32;;;;;;;2.83;1.97;;;1.40;99.90;;;;;;5056976;28;20413;-80
2021/12/07 06:37:00;;;;;;;3.40;2.20;;;1.50;99.90;;;;;;5057318;28;20406;-80
2021/12/07 06:39:25;;;;;;;3.43;1.70;;;1.50;99.90;;;;;;5057810;28;20414;-80
2021/12/07 06:41:51;;;;;;;3.30;2.03;;;1.50;99.90;;;;;;5057761;28;20471;-80
2021/12/07 06:44:17;;;;;;;3.23;2.17;;;1.60;99.90;;;;;;5058110;28;20671;-79
2021/12/07 06:46:43;;;;;;;2.90;2.03;;;1.60;99.90;;;;;;5058874;28;20177;-79
2021/12/07 06:49:09;;;;;;;5.43;2.30;;;1.60;99.90;;;;;;5058618;28;20658;-81
2021/12/07 06:51:34;;;;;;;3.53;2.60;;;1.70;99.90;;;;;;5058668;28;20203;-80
2021/12/07 06:54:00;;;;;;;3.70;2.30;;;1.70;99.90;;;;;;5059092;28;20179;-80
2021/12/07 06:56:28;;;;;;;2.50;2.10;;;1.70;99.90;;;;;;5058616;28;20637;-79
2021/12/07 06:58:54;;;;;;;3.37;2.83;;;1.70;99.90;;;;;;5058560;28;20195;-80
2021/12/07 07:01:20;;;;;;;2.53;1.60;;;1.70;99.90;;;;;;5058885;28;20417;-80
2021/12/07 07:03:46;;;;;;;3.20;2.13;;;1.70;99.90;;;;;;5058753;28;20471;-80
2021/12/07 07:06:11;;;;;;;2.77;2.47;;;1.70;99.90;;;;;;5057039;28;20262;-80
2021/12/07 07:08:38;;;;;;;4.50;2.13;;;;;;;;;;5058375;28;20429;-80
2021/12/07 07:11:05;;;;;;;3.63;2.63;;;1.70;99.90;;;;;;5057839;28;20739;-79
2021/12/07 07:13:31;;;;;;;5.63;2.80;;;1.80;99.90;;;;;;5061621;28;20541;-79
2021/12/07 07:15:58;;;;;;;4.30;2.53;;;1.80;99.90;;;;;;5059673;28;20418;-80
2021/12/07 07:18:24;;;;;;;3.70;2.57;;;1.90;99.90;;;;;;5057896;28;20802;-79
2021/12/07 07:20:50;;;;;;;4.43;3.00;;;1.90;99.90;;;;;;5058064;28;20406;-80
2021/12/07 07:23:16;;;;;;;4.23;2.87;;;;;;;;;;5058727;28;20687;-79
2021/12/07 07:25:42;;;;;;;3.90;2.93;;;;;;;;;;5056995;28;20410;-79
2021/12/07 07:28:08;;;;;;;3.30;2.40;;;;;;;;;;5057946;28;20495;-80
2021/12/07 07:30:34;;;;;;;3.77;2.10;;;;;;;;;;5058322;28;20464;-80
2021/12/07 07:33:00;;;;;;;5.97;2.30;;;;;;;;;;5058634;28;20500;-80
2021/12/07 07:35:26;;;;;;;3.00;1.87;;;;;;;;;;5058265;28;20904;-80
2021/12/07 07:37:52;;;;;;;4.30;2.90;;;;;;;;;;5058104;28;20440;-81
2021/12/07 07:40:20;;;;;;;3.47;2.23;;;;;;;;;;5057087;28;20413;-81
2021/12/07 07:42:46;;;;;;;6.30;2.67;;;;;;;;;;5057722;28;20434;-80
2021/12/07 07:45:12;;;;;;;3.90;2.40;;;;;;;;;;5057494;28;20414;-81
2021/12/07 07:47:39;;;;;;;2.53;1.90;;;;;;;;;;5057795;28;20895;-81
2021/12/07 07:50:07;;;;;;;1.93;1.70;;;;;;;;;;5058386;28;20457;-80
2021/12/07 07:52:34;;;;;;;2.80;2.30;;;;;;;;;;5057592;28;20428;-80
2021/12/07 07:55:00;;;;;;;4.30;2.47;;;;;;;;;;5057691;28;20820;-80
2021/12/07 07:57:27;;;;;;;2.50;2.00;;;;;;;;;;5057123;28;20412;-80
2021/12/07 07:59:53;;;;;;;3.43;2.40;;;1.90;99.90;;;;;;5046663;28;20433;-81
2021/12/07 08:02:19;;;;;;;4.83;2.40;;;2.30;99.90;;;;;;5041989;28;20446;-81
2021/12/07 08:04:46;;;;;;;3.10;2.30;;;2.30;99.90;;;;;;5044746;28;20182;-79
2021/12/07 08:07:12;;;;;;;4.43;2.03;;;2.30;99.90;;;;;;5037643;28;20414;-80
2021/12/07 08:09:38;;;;;;;3.73;2.47;;;2.20;99.90;;;;;;5041374;28;20411;-80
2021/12/07 08:12:05;;;;;;;3.40;2.40;;;2.10;99.90;;;;;;5041406;28;20204;-82
2021/12/07 08:14:31;;;;;;;4.40;2.67;;;2.00;99.90;;;;;;5038575;28;20346;-80
2021/12/07 08:16:57;;;;;;;3.30;2.83;;;2.00;99.90;;;;;;5040168;28;20434;-81
2021/12/07 08:19:23;;;;;;;3.77;2.43;;;1.90;99.90;;;;;;5053447;28;20483;-79
2021/12/07 08:21:49;;;;;;;3.27;2.97;;;2.00;99.90;;;;;;5054573;28;20833;-79
2021/12/07 08:24:16;;;;;;;5.07;2.50;;;2.00;99.90;;;;;;5054780;28;20179;-81
2021/12/07 08:26:41;;;;;;;2.50;2.30;;;2.00;99.90;;;;;;5046984;28;20915;-78
2021/12/07 08:29:07;;;;;;;6.40;4.00;;;2.00;99.90;;;;;;5058211;28;20444;-80
2021/12/07 08:31:33;;;;;;;3.10;2.20;;;2.00;99.90;;;;;;5055478;28;20195;-80
2021/12/07 08:34:00;;;;;;;6.43;3.03;;;1.90;99.90;;;;;;5057811;28;20203;-79
2021/12/07 08:36:27;;;;;;;3.80;2.40;;;1.90;99.90;;;;;;5056358;28;20198;-79
2021/12/07 08:38:53;;;;;;;3.97;2.30;;;2.00;99.90;;;;;;5055693;28;20445;-78
2021/12/07 08:41:19;;;;;;;3.37;2.53;;;2.10;99.90;;;;;;5054302;28;20422;-81
2021/12/07 08:43:46;;;;;;;3.73;2.57;;;2.00;99.90;;;;;;5054594;28;20449;-79
2021/12/07 08:46:14;;;;;;;5.90;2.47;;;2.00;99.90;;;;;;5048085;28;20452;-80
2021/12/07 08:48:42;;;;;;;2.73;2.30;;;2.00;99.90;;;;;;5042997;28;20442;-81
2021/12/07 08:51:10;;;;;;;4.27;3.00;;;2.10;99.90;;;;;;5051143;28;20552;-80
2021/12/07 08:53:42;;;;;;;2.97;2.40;;;2.10;99.90;;;;;;5050677;28;20873;-81
2021/12/07 09:01:37;;;;;;;6.17;2.40;;;1.90;99.90;;;;;;5048730;28;20409;-81
2021/12/07 09:04:04;;;;;;;4.40;2.97;;;2.00;99.90;;;;;;5065715;23;20406;-65
2021/12/07 09:06:32;;;;;;;4.00;3.03;;;2.00;99.90;;;;;;5066290;28;20170;-64
2021/12/07 09:08:58;;;;;;;4.60;2.47;;;2.00;99.90;;;;;;5072098;28;20531;-64
2021/12/07 09:11:25;;;;;;;3.97;3.57;;;2.10;99.90;;;;;;5079366;28;20782;-63
2021/12/07 09:13:51;;;;;;;2.87;2.27;;;2.20;99.90;;;;;;5070510;28;20412;-63
2021/12/07 09:16:19;;;;;;;4.10;2.60;;;2.40;99.90;;;;;;5070478;28;20513;-64
2021/12/07 09:18:45;;;;;;;4.83;2.20;;;;;;;;;;5071526;28;20496;-63
2021/12/07 09:21:12;;;;;;;4.93;2.83;;;;;;;;;;5070490;28;20445;-64
2021/12/07 09:23:38;;;;;;;5.10;3.43;;;;;;;;;;5069092;28;20954;-64
2021/12/07 09:26:05;;;;;;;4.17;2.93;;;;;;;;;;5069916;28;20421;-64
2021/12/07 09:28:31;;;;;;;3.97;3.30;;;;;;;;;;5069662;28;20526;-63
2021/12/07 09:30:57;;;;;;;3.73;2.40;;;;;;;;;;5070427;28;20465;-63
2021/12/07 09:33:25;;;;;;;4.73;2.80;;;;;;;;;;5069725;28;20445;-63
2021/12/07 09:35:52;;;;;;;3.50;3.13;;;;;;;;;;5070861;28;20419;-63
2021/12/07 09:38:18;;;;;;;3.60;2.67;;;;;;;;;;5068889;28;20412;-63
2021/12/07 09:40:45;;;;;;;3.40;3.10;;;;;;;;;;5071413;28;20542;-64
2021/12/07 09:43:12;;;;;;;8.83;3.13;;;;;;;;;;5068949;28;20437;-63
2021/12/07 09:45:39;;;;;;;5.37;3.10;;;;;;;;;;5068968;28;20986;-63
2021/12/07 09:48:06;;;;;;;4.37;3.00;;;;;;;;;;5063732;28;20920;-63
2021/12/07 09:50:34;;;;;;;4.70;3.20;;;;;;;;;;5062509;28;20520;-64
2021/12/07 09:53:00;;;;;;;5.23;2.97;;;;;;;;;;5065149;28;20516;-64
2021/12/07 09:55:28;;;;;;;6.83;3.43;;;;;;;;;;5068718;28;20504;-64
2021/12/07 09:57:54;;;;;;;8.50;4.00;;;;;;;;;;5071630;28;20413;-64
2021/12/07 10:00:22;;;;;;;6.27;3.30;;;;;;;;;;5069016;28;20425;-64
2021/12/07 10:02:49;;;;;;;3.57;2.90;;;;;;;;;;5066983;28;20453;-64
2021/12/07 10:05:17;;;;;;;3.50;2.90;;;;;;;;;;5071350;28;20542;-64
2021/12/07 10:07:44;;;;;;;6.77;3.00;;;;;;;;;;5075302;28;20412;-64
2021/12/07 10:10:11;;;;;;;5.77;2.90;;;;;;;;;;5070474;28;20894;-64
2021/12/07 10:12:37;;;;;;;5.93;2.40;;;;;;;;;;5068410;28;20444;-64
2021/12/07 10:15:07;;;;;;;6.07;3.13;;;;;;;;;;5067658;28;20420;-64
2021/12/07 10:17:36;;;;;;;7.53;2.47;;;;;;;;;;5071074;28;20417;-64
2021/12/07 10:20:21;;;;;;;4.20;2.27;;;;;;;;;;5073871;28;20445;-64
2021/12/07 10:22:51;;;;;;;13.93;3.07;;;;;;;;;;5073847;28;20470;-64
2021/12/07 10:25:27;;;;;;;3.40;2.40;;;;;;;;;;5075098;28;20414;-64
2021/12/07 10:27:53;;;;;;;3.33;2.73;;;;;;;;;;5072748;28;20417;-64
2021/12/07 10:30:21;;;;;;;3.40;2.03;;;;;;;;;;5074810;28;20440;-63
2021/12/07 10:33:01;;;;;;;4.20;2.60;;;;;;;;;;5073654;28;20904;-64
2021/12/07 10:35:31;;;;;;;4.10;2.00;;;;;;;;;;5071647;28;20462;-64
2021/12/07 10:38:17;;;;;;;3.10;2.40;;;;;;;;;;5073745;28;20424;-64
2021/12/07 10:40:55;;;;;;;5.10;3.77;;;;;;;;;;5073590;28;20508;-64
2021/12/07 10:43:40;;;;;;;3.63;2.20;;;;;;;;;;5073000;28;21114;-63
2021/12/07 10:46:25;;;;;;;2.70;1.87;;;;;;;;;;5073035;28;20625;-65
2021/12/07 10:48:51;;;;;;;3.67;2.73;;;;;;;;;;5070445;28;20421;-65
2021/12/07 10:51:17;;;;;;;4.70;2.50;;;;;;;;;;5073901;28;21025;-65
2021/12/07 10:53:53;;;;;;;3.90;2.10;;;;;;;;;;5074010;28;20474;-63
2021/12/07 10:56:29;;;;;;;3.13;1.90;;;;;;;;;;5072676;28;20571;-65
2021/12/07 10:59:14;;;;;;;4.93;2.50;;;;;;;;;;5073043;28;20447;-65
2021/12/07 11:01:41;;;;;;;2.60;1.90;;;;;;;;;;5066830;28;20946;-63
2021/12/07 11:04:20;;;;;;;2.50;1.90;;;;;;;;;;5072280;28;20526;-65
2021/12/07 11:07:05;;;;;;;6.50;2.40;;;;;;;;;;5070513;28;20420;-63
2021/12/07 11:09:37;;;;;;;3.20;1.87;;;;;;;;;;5072082;28;20417;-64
2021/12/07 11:12:10;;;;;;;3.03;2.20;;;;;;;;;;5072072;28;20460;-64
2021/12/07 11:14:49;;;;;;;3.90;2.60;;;;;;;;;;5071917;28;20420;-64
2021/12/07 11:17:21;;;;;;;3.77;1.93;;;;;;;;;;5070610;28;20789;-64
2021/12/07 11:19:47;;;;;;;2.67;2.20;;;;;;;;;;5071761;28;20857;-64
2021/12/07 11:22:18;;;;;;;3.13;2.00;;;;;;;;;;5073491;28;20447;-64
2021/12/07 11:24:45;;;;;;;2.60;1.90;;;;;;;;;;5071224;28;20918;-64
2021/12/07 11:30:06;;;;;;;2.80;1.90;;;;;;;;;;5070853;28;20769;-63
2021/12/07 11:32:32;;;;;;;3.70;2.00;;;;;;;;;;5071233;28;20463;-63
2021/12/07 11:35:18;;;;;;;4.57;2.40;;;;;;;;;;5071907;28;20924;-64
2021/12/07 11:37:46;;;;;;;3.20;1.87;;;;;;;;;;5071716;28;20427;-64
2021/12/07 11:40:13;;;;;;;4.30;1.80;;;;;;;;;;5073288;28;20436;-64
2021/12/07 11:42:42;;;;;;;6.77;1.97;;;;;;;;;;5071184;28;20429;-63
2021/12/07 11:45:12;;;;;;;6.03;1.83;;;;;;;;;;5071423;28;20503;-63
2021/12/07 11:47:49;;;;;;;2.13;1.57;;;;;;;;;;5072874;28;20428;-63
2021/12/07 11:50:15;;;;;;;4.13;1.90;;;;;;;;;;5073157;28;20448;-63
2021/12/07 11:52:41;;;;;;;4.80;2.10;;;;;;;;;;5072429;28;20441;-63
2021/12/07 11:55:09;;;;;;;5.17;2.00;;;;;;;;;;5069850;28;20413;-63
2021/12/07 11:57:36;;;;;;;4.43;2.30;;;;;;;;;;5068605;28;20420;-63
2021/12/07 12:00:04;;;;;;;3.77;2.20;;;;;;;;;;5058095;28;20417;-64
2021/12/07 12:02:30;;;;;;;4.60;2.33;;;;;;;;;;5073140;28;20795;-64
2021/12/07 12:04:56;;;;;;;4.67;2.17;;;;;;;;;;5069102;28;20631;-64
2021/12/07 12:07:22;;;;;;;3.30;2.10;;;;;;;;;;5070881;28;20474;-64
2021/12/07 12:09:51;;;;;;;2.87;1.90;;;;;;;;;;5072071;28;20888;-64
2021/12/07 12:12:17;;;;;;;3.50;2.30;;;;;;;;;;5070654;28;20978;-64
2021/12/07 12:15:01;;;;;;;5.07;2.20;;;;;;;;;;5071465;28;20828;-63
2021/12/07 12:17:27;;;;;;;4.80;2.60;;;;;;;;;;5065154;28;20413;-63
2021/12/07 12:20:18;;;;;;;4.50;2.13;;;;;;;;;;5070792;28;20411;-63
2021/12/07 12:22:52;;;;;;;3.10;1.90;;;;;;;;;;5063923;28;20499;-64
2021/12/07 12:25:21;;;;;;;5.07;2.53;;;;;;;;;;5064029;28;20439;-63
2021/12/07 12:27:49;;;;;;;4.30;2.23;;;;;;;;;;5071036;28;20413;-64
2021/12/07 12:30:21;;;;;;;3.67;2.27;;;;;;;;;;5069311;28;20449;-64
2021/12/07 12:32:50;;;;;;;2.83;2.13;;;;;;;;;;5070836;28;20520;-64
2021/12/07 12:35:16;;;;;;;3.60;2.20;;;;;;;;;;5068205;28;20780;-64
2021/12/07 12:37:47;;;;;;;2.73;1.40;;;;;;;;;;5070811;28;20427;-64
2021/12/07 12:40:28;;;;;;;4.40;2.00;;;;;;;;;;5070715;28;20413;-64
2021/12/07 12:42:57;;;;;;;7.77;2.10;;;;;;;;;;5070187;28;20425;-64
2021/12/07 12:45:31;;;;;;;3.40;1.93;;;;;;;;;;5070288;28;20409;-64
2021/12/07 12:48:05;;;;;;;10.03;3.10;;;;;;;;;;5070558;28;20433;-64
2021/12/07 12:50:31;;;;;;;4.70;1.87;;;;;;;;;;5070173;28;20448;-64
2021/12/07 12:53:03;;;;;;;19.00;2.60;;;;;;;;;;5071501;28;20820;-64
2021/12/07 12:55:35;;;;;;;4.50;2.40;;;;;;;;;;5056623;28;20460;-65
2021/12/07 12:58:04;;;;;;;6.33;2.23;;;;;;;;;;5071421;28;20986;-63
2021/12/07 13:00:53;;;;;;;4.43;2.20;;;;;;;;;;5070143;28;20421;-63
2021/12/07 13:03:19;;;;;;;2.97;2.10;;;;;;;;;;5061429;28;20437;-64
2021/12/07 13:05:57;;;;;;;3.40;1.90;;;;;;;;;;5070461;28;20985;-64
2021/12/07 13:08:23;;;;;;;3.83;2.07;;;;;;;;;;5068886;28;20401;-63
2021/12/07 13:11:00;;;;;;;4.00;2.17;;;;;;;;;;5070833;28;21338;-66
2021/12/07 13:13:27;;;;;;;5.43;1.70;;;;;;;;;;5069083;28;20401;-63
2021/12/07 13:15:53;;;;;;;4.47;1.80;;;;;;;;;;5069808;28;20406;-63
2021/12/07 13:18:20;;;;;;;9.53;2.00;;;;;;;;;;5070485;28;20409;-64
2021/12/07 13:20:50;;;;;;;4.13;1.73;;;;;;;;;;5069762;28;20451;-64
2021/12/07 13:23:17;;;;;;;3.93;2.40;;;;;;;;;;5071417;28;20568;-64
2021/12/07 13:25:45;;;;;;;3.27;2.00;;;;;;;;;;5071168;28;20862;-64
2021/12/07 13:28:22;;;;;;;5.40;2.13;;;;;;;;;;5071095;28;20421;-64
2021/12/07 13:30:51;;;;;;;2.73;1.57;;;;;;;;;;5069987;28;20455;-64
2021/12/07 13:33:37;;;;;;;5.50;1.87;;;;;;;;;;5069155;28;20467;-64
2021/12/07 13:36:22;;;;;;;4.93;2.00;;;;;;;;;;5067327;28;20417;-62
2021/12/07 13:38:49;;;;;;;7.03;1.97;;;;;;;;;;5060688;28;20421;-64
2021/12/07 13:41:15;;;;;;;4.30;1.77;;;;;;;;;;5069020;28;20538;-65
2021/12/07 13:43:46;;;;;;;5.00;1.90;;;;;;;;;;5069167;28;20432;-64
2021/12/07 13:46:25;;;;;;;3.63;1.70;;;;;;;;;;5066585;28;20522;-64
2021/12/07 13:48:53;;;;;;;6.10;1.83;;;;;;;;;;5068815;28;20409;-65
2021/12/07 13:51:21;;;;;;;3.70;1.97;;;;;;;;;;5070578;28;20904;-65
2021/12/07 13:53:47;;;;;;;3.77;1.90;;;;;;;;;;5070565;28;20414;-64
2021/12/07 13:56:13;;;;;;;6.07;2.40;;;;;;;;;;5070118;28;21270;-64
2021/12/07 13:58:51;;;;;;;2.93;2.00;;;;;;;;;;5070462;28;20413;-64
2021/12/07 14:01:17;;;;;;;7.83;2.37;;;;;;;;;;5071507;28;20836;-65
2021/12/07 14:03:44;;;;;;;11.83;2.83;;;;;;;;;;5071310;28;20484;-64
2021/12/07 14:06:10;;;;;;;3.03;1.77;;;;;;;;;;5066578;28;20428;-65
2021/12/07 14:08:37;;;;;;;5.80;2.10;;;;;;;;;;5069851;28;20425;-65
2021/12/07 14:11:03;;;;;;;4.43;2.20;;;;;;;;;;5070258;28;20448;-64
2021/12/07 14:13:29;;;;;;;9.33;2.50;;;;;;;;;;5069248;28;20421;-64
2021/12/07 14:15:56;;;;;;;7.60;2.50;;;;;;;;;;5071361;28;20772;-64
2021/12/07 14:18:24;;;;;;;8.40;3.47;;;;;;;;;;5070689;28;20409;-65
2021/12/07 14:20:54;;;;;;;6.40;2.20;;;;;;;;;;5070248;28;20423;-64
2021/12/07 14:23:26;;;;;;;4.50;1.73;;;;;;;;;;5070320;28;20523;-63
2021/12/07 14:25:52;;;;;;;6.30;2.03;;;;;;;;;;5069672;28;20417;-64
2021/12/07 14:28:34;;;;;;;4.00;1.80;;;;;;;;;;5069758;28;20421;-64
2021/12/07 14:31:06;;;;;;;4.70;2.47;;;;;;;;;;5066743;28;20460;-62
2021/12/07 14:33:37;;;;;;;3.40;2.37;;;;;;;;;;5067970;28;20925;-64
2021/12/07 14:36:04;;;;;;;4.33;2.07;;;;;;;;;;5069236;28;20421;-64
2021/12/07 14:38:31;;;;;;;4.77;2.00;;;;;;;;;;5063337;28;20405;-64
2021/12/07 14:41:00;;;;;;;6.03;2.00;;;;;;;;;;5067330;28;20425;-64
2021/12/07 14:43:26;;;;;;;3.60;2.40;;;;;;;;;;5071089;28;20439;-65
2021/12/07 14:45:52;;;;;;;3.90;1.70;;;;;;;;;;5072911;28;20428;-64
2021/12/07 14:48:18;;;;;;;5.03;2.30;;;;;;;;;;5072703;28;20404;-64
2021/12/07 14:50:44;;;;;;;2.80;1.93;;;;;;;;;;5074234;28;20492;-65
2021/12/07 14:53:10;;;;;;;8.73;2.63;;;;;;;;;;5070255;28;20778;-64
2021/12/07 14:55:39;;;;;;;3.10;2.30;;;;;;;;;;5072907;28;20409;-64
2021/12/07 14:58:06;;;;;;;3.90;2.60;;;;;;;;;;5073225;28;20417;-64
2021/12/07 15:00:33;;;;;;;4.97;2.00;;;;;;;;;;5070112;28;20423;-64
2021/12/07 15:02:59;;;;;;;3.80;2.27;;;;;;;;;;5072592;28;20476;-64
2021/12/07 15:05:25;;;;;;;4.30;1.90;;;;;;;;;;5070579;28;20456;-64
2021/12/07 15:07:52;;;;;;;7.33;2.40;;;;;;;;;;5072983;28;20425;-64
2021/12/07 15:10:19;;;;;;;4.40;2.20;;;;;;;;;;5073314;28;20446;-64
2021/12/07 15:12:47;;;;;;;4.43;2.60;;;;;;;;;;5071498;28;20551;-64
2021/12/07 15:15:13;;;;;;;7.60;2.80;;;;;;;;;;5073586;28;20405;-65
2021/12/07 15:17:40;;;;;;;4.03;2.10;;;;;;;;;;5072538;28;20411;-64
2021/12/07 15:20:08;;;;;;;10.43;2.67;;;;;;;;;;5072817;28;20542;-64
2021/12/07 15:22:35;;;;;;;4.70;2.80;;;;;;;;;;5068764;28;20428;-64
2021/12/07 15:25:01;;;;;;;4.20;2.10;;;;;;;;;;5073929;28;20421;-64
2021/12/07 15:27:27;;;;;;;10.13;2.67;;;;;;;;;;5072882;28;20413;-64
2021/12/07 15:29:54;;;;;;;4.07;2.20;;;;;;;;;;5071752;28;20413;-64
2021/12/07 15:32:21;;;;;;;3.23;2.23;;;;;;;;;;5071974;28;20445;-64
2021/12/07 15:34:48;;;;;;;3.20;2.33;;;;;;;;;;5073519;28;20907;-65
2021/12/07 15:37:22;;;;;;;5.63;3.00;;;;;;;;;;5071387;28;20425;-64
2021/12/07 15:40:09;;;;;;;3.60;2.60;;;;;;;;;;5059679;28;20409;-65
2021/12/07 15:42:35;;;;;;;4.70;3.40;;;;;;;;;;5073475;28;20491;-65
2021/12/07 15:45:06;;;;;;;3.43;2.40;;;;;;;;;;5064891;28;20437;-64
2021/12/07 15:47:33;;;;;;;5.93;3.10;;;;;;;;;;5072797;28;20437;-65
2021/12/07 15:50:07;;;;;;;5.17;2.40;;;;;;;;;;5072134;28;20419;-64
2021/12/07 15:52:39;;;;;;;8.30;4.23;;;;;;;;;;5068101;28;20448;-63
2021/12/07 15:55:08;;;;;;;6.53;4.00;;;;;;;;;;5071185;28;20796;-64
2021/12/07 15:57:42;;;;;;;8.63;4.13;;;;;;;;;;5062261;28;20956;-64
2021/12/07 16:00:09;;;;;;;11.23;3.80;;;;;;;;;;5069662;28;20697;-64
2021/12/07 16:02:35;;;;;;;6.17;3.60;;;;;;;;;;5071496;28;20448;-64
2021/12/07 16:05:08;;;;;;;10.53;4.20;;;;;;;;;;5071211;28;20428;-64